createdAt,value
2022-11-26T00:00:47.122Z,99737.84
2022-11-26T00:05:52.731Z,99743.06
2022-11-26T00:10:57.425Z,99749.69
2022-11-26T00:16:00.406Z,99739.22
2022-11-26T00:21:03.352Z,99741.81
2022-11-26T00:26:15.721Z,99747.25
2022-11-26T00:31:19.239Z,99756.88
2022-11-26T00:36:31.581Z,99758.56
2022-11-26T00:41:38.943Z,99763.19
2022-11-26T00:46:41.820Z,99765.03
2022-11-26T00:51:45.583Z,99767.22
2022-11-26T00:56:51.144Z,99787.56
2022-11-26T01:01:54.131Z,99786.28
2022-11-26T01:06:57.127Z,99792.00
2022-11-26T01:12:01.405Z,99800.66
2022-11-26T01:17:04.366Z,99798.66
2022-11-26T01:22:07.290Z,99810.66
2022-11-26T01:27:13.552Z,99816.22
2022-11-26T01:32:16.648Z,99817.19
2022-11-26T01:37:19.553Z,99820.47
2022-11-26T01:42:35.642Z,99815.91
2022-11-26T01:47:38.748Z,99816.03
2022-11-26T01:52:41.818Z,99819.78
2022-11-26T01:57:47.027Z,99832.00
2022-11-26T02:02:50.405Z,99842.44
2022-11-26T02:07:54.401Z,99837.09
2022-11-26T02:12:58.850Z,99847.53
2022-11-26T02:18:07.399Z,99840.63
2022-11-26T02:23:45.442Z,99844.88
2022-11-26T02:29:04.436Z,99854.03
2022-11-26T02:34:16.234Z,99859.91
2022-11-26T02:39:21.209Z,99868.38
2022-11-26T02:44:26.663Z,99871.16
2022-11-26T02:49:34.064Z,99884.03
2022-11-26T02:54:39.399Z,99885.69
2022-11-26T02:59:43.449Z,99892.50
2022-11-26T03:04:53.733Z,99892.16
2022-11-26T03:09:59.035Z,99902.59
2022-11-26T03:15:01.991Z,99901.13
2022-11-26T03:20:08.075Z,99907.34
2022-11-26T03:25:11.554Z,99920.84
2022-11-26T03:30:15.352Z,99914.16
2022-11-26T03:35:19.912Z,99922.34
2022-11-26T03:40:22.782Z,99928.03
2022-11-26T03:45:25.699Z,99945.16
2022-11-26T03:50:29.953Z,99940.13
2022-11-26T03:55:32.874Z,99952.16
2022-11-26T04:00:35.793Z,99953.78
2022-11-26T04:05:40.022Z,99954.78
2022-11-26T04:10:42.973Z,99959.81
2022-11-26T04:15:45.920Z,99954.25
2022-11-26T04:20:53.290Z,99960.59
2022-11-26T04:25:56.411Z,99965.66
2022-11-26T04:30:59.420Z,99969.91
2022-11-26T04:36:03.810Z,99979.84
2022-11-26T04:41:07.621Z,99989.47
2022-11-26T04:46:10.704Z,99999.56
2022-11-26T04:51:15.038Z,100017.81
2022-11-26T04:56:17.968Z,100020.28
2022-11-26T05:01:21.120Z,100018.47
2022-11-26T05:06:25.444Z,100028.59
2022-11-26T05:11:28.387Z,100032.84
2022-11-26T05:16:31.673Z,100033.16
2022-11-26T05:21:36.001Z,100039.19
2022-11-26T05:26:38.908Z,100050.94
2022-11-26T05:31:41.952Z,100056.78
2022-11-26T05:36:46.315Z,100058.75
2022-11-26T05:41:49.294Z,100062.66
2022-11-26T05:46:52.235Z,100062.00
2022-11-26T05:51:56.540Z,100063.00
2022-11-26T05:57:00.386Z,100068.38
2022-11-26T06:02:03.684Z,100081.56
2022-11-26T06:07:08.138Z,100085.13
2022-11-26T06:12:11.134Z,100089.72
2022-11-26T06:17:14.094Z,100094.94
2022-11-26T06:22:18.368Z,100102.91
2022-11-26T06:27:21.465Z,100110.25
2022-11-26T06:32:24.357Z,100111.81
2022-11-26T06:37:28.652Z,100117.53
2022-11-26T06:42:31.615Z,100124.22
2022-11-26T06:47:34.487Z,100133.56
2022-11-26T06:52:38.866Z,100142.63
2022-11-26T06:57:41.778Z,100158.50
2022-11-26T07:02:44.931Z,100156.53
2022-11-26T07:07:49.304Z,100160.63
2022-11-26T07:12:52.245Z,100178.22
2022-11-26T07:17:55.225Z,100182.31
2022-11-26T07:22:59.506Z,100183.28
2022-11-26T07:28:02.370Z,100196.31
2022-11-26T07:33:05.378Z,100201.03
2022-11-26T07:38:09.620Z,100200.22
2022-11-26T07:43:12.549Z,100208.88
2022-11-26T07:48:16.999Z,100213.28
2022-11-26T07:53:21.609Z,100218.16
2022-11-26T07:58:24.569Z,100212.00
2022-11-26T08:03:27.428Z,100221.63
2022-11-26T08:08:31.761Z,100222.75
2022-11-26T08:13:34.673Z,100225.38
2022-11-26T08:18:37.751Z,100237.28
2022-11-26T08:23:41.999Z,100241.38
2022-11-26T08:28:47.478Z,100240.56
2022-11-26T08:33:50.377Z,100241.53
2022-11-26T08:38:54.637Z,100234.88
2022-11-26T08:44:06.559Z,100242.38
2022-11-26T08:49:14.889Z,100260.47
2022-11-26T08:54:19.214Z,100258.84
2022-11-26T08:59:24.218Z,100253.44
2022-11-26T09:04:27.179Z,100265.03
2022-11-26T09:09:31.723Z,100260.47
2022-11-26T09:14:38.441Z,100270.75
2022-11-26T09:19:41.643Z,100278.25
2022-11-26T09:24:45.893Z,100279.56
2022-11-26T09:29:48.747Z,100272.22
2022-11-26T09:34:52.612Z,100277.41
2022-11-26T09:39:56.927Z,100282.97
2022-11-26T09:45:10.043Z,100285.59
2022-11-26T09:50:26.644Z,100288.34
2022-11-26T09:55:32.980Z,100289.66
2022-11-26T10:00:41.069Z,100294.91
2022-11-26T10:05:48.855Z,100292.63
2022-11-26T10:11:02.498Z,100296.97
2022-11-26T10:16:14.547Z,100303.72
2022-11-26T10:21:32.324Z,100299.09
2022-11-26T10:26:40.882Z,100311.66
2022-11-26T10:31:46.282Z,100306.28
2022-11-26T10:36:49.975Z,100310.91
2022-11-26T10:41:54.315Z,100318.41
2022-11-26T10:46:58.503Z,100321.84
2022-11-26T10:52:03.490Z,100328.19
2022-11-26T10:57:15.220Z,100326.56
2022-11-26T11:02:33.931Z,100336.34
2022-11-26T11:07:44.074Z,100339.97
2022-11-26T11:12:50.982Z,100341.78
2022-11-26T11:18:02.571Z,100334.72
2022-11-26T11:23:19.048Z,100345.34
2022-11-26T11:28:27.511Z,100344.69
2022-11-26T11:33:31.114Z,100350.06
2022-11-26T11:38:46.742Z,100358.88
2022-11-26T11:43:51.205Z,100355.97
2022-11-26T11:49:17.417Z,100363.16
2022-11-26T11:54:24.334Z,100357.44
2022-11-26T12:00:10.695Z,100355.47
2022-11-26T12:05:40.037Z,100360.88
2022-11-26T12:10:52.588Z,100374.56
2022-11-26T12:16:02.083Z,100374.25
2022-11-26T12:21:10.958Z,100372.94
2022-11-26T12:26:20.138Z,100373.56
2022-11-26T12:31:32.205Z,100365.75
2022-11-26T12:36:44.373Z,100369.03
2022-11-26T12:41:53.713Z,100364.94
2022-11-26T12:47:10.568Z,100365.75
2022-11-26T12:52:29.814Z,100381.88
2022-11-26T12:57:37.469Z,100374.56
2022-11-26T13:02:44.774Z,100383.09
2022-11-26T13:08:07.031Z,100371.28
2022-11-26T13:13:18.522Z,100375.22
2022-11-26T13:18:32.633Z,100377.84
2022-11-26T13:23:50.958Z,100377.50
2022-11-26T13:29:17.608Z,100385.19
2022-11-26T13:34:35.577Z,100390.41
2022-11-26T13:40:04.805Z,100393.03
2022-11-26T13:45:37.004Z,100392.53
2022-11-26T13:50:46.411Z,100397.59
2022-11-26T13:55:53.428Z,100388.13
2022-11-26T14:00:56.568Z,100389.28
2022-11-26T14:06:10.497Z,100382.09
2022-11-26T14:11:34.295Z,100387.63
2022-11-26T14:17:12.622Z,100397.44
2022-11-26T14:22:30.278Z,100404.97
2022-11-26T14:27:34.458Z,100399.41
2022-11-26T14:32:40.831Z,100400.53
2022-11-26T14:37:52.550Z,100404.28
2022-11-26T14:43:10.150Z,100397.13
2022-11-26T14:48:23.890Z,100404.97
2022-11-26T14:53:31.850Z,100407.59
2022-11-26T14:58:37.822Z,100404.44
2022-11-26T15:03:40.787Z,100415.50
2022-11-26T15:08:45.637Z,100412.03
2022-11-26T15:13:49.529Z,100411.50
2022-11-26T15:18:55.285Z,100418.34
2022-11-26T15:24:03.988Z,100414.88
2022-11-26T15:29:29.302Z,100418.94
2022-11-26T15:34:34.049Z,100424.94
2022-11-26T15:39:38.292Z,100420.41
2022-11-26T15:44:42.892Z,100419.34
2022-11-26T15:49:51.934Z,100430.41
2022-11-26T15:55:12.405Z,100413.06
2022-11-26T16:00:23.187Z,100416.25
2022-11-26T16:05:31.870Z,100412.47
2022-11-26T16:10:36.790Z,100412.34
2022-11-26T16:15:47.739Z,100420.00
2022-11-26T16:20:50.849Z,100419.78
2022-11-26T16:26:17.518Z,100423.56
2022-11-26T16:31:21.197Z,100430.69
2022-11-26T16:36:26.253Z,100426.47
2022-11-26T16:41:30.586Z,100427.63
2022-11-26T16:46:36.944Z,100431.56
2022-11-26T16:51:39.890Z,100427.25
2022-11-26T16:56:44.463Z,100438.84
2022-11-26T17:01:47.410Z,100444.94
2022-11-26T17:06:51.205Z,100444.06
2022-11-26T17:11:55.511Z,100461.09
2022-11-26T17:16:58.501Z,100459.19
2022-11-26T17:22:01.407Z,100453.72
2022-11-26T17:27:07.568Z,100459.09
2022-11-26T17:32:12.863Z,100461.84
2022-11-26T17:37:19.860Z,100460.03
2022-11-26T17:42:25.038Z,100461.66
2022-11-26T17:47:28.360Z,100462.22
2022-11-26T17:52:31.378Z,100469.63
2022-11-26T17:57:36.052Z,100478.94
2022-11-26T18:02:38.976Z,100469.63
2022-11-26T18:07:42.305Z,100472.03
2022-11-26T18:12:46.607Z,100479.06
2022-11-26T18:17:51.511Z,100485.69
2022-11-26T18:22:56.667Z,100485.03
2022-11-26T18:28:00.906Z,100481.81
2022-11-26T18:33:03.849Z,100486.44
2022-11-26T18:38:20.625Z,100487.31
2022-11-26T18:43:24.917Z,100489.09
2022-11-26T18:48:27.935Z,100493.78
2022-11-26T18:53:31.021Z,100493.34
2022-11-26T18:58:35.274Z,100491.44
2022-11-26T19:03:42.566Z,100491.03
2022-11-26T19:08:48.060Z,100478.88
2022-11-26T19:13:52.431Z,100488.13
2022-11-26T19:18:55.296Z,100486.50
2022-11-26T19:24:00.316Z,100485.06
2022-11-26T19:29:06.029Z,100485.00
2022-11-26T19:34:13.623Z,100488.00
2022-11-26T19:39:17.277Z,100498.50
2022-11-26T19:44:21.688Z,100497.75
2022-11-26T19:49:24.605Z,100487.81
2022-11-26T19:54:27.790Z,100488.72
2022-11-26T19:59:32.404Z,100487.34
2022-11-26T20:04:35.321Z,100490.59
2022-11-26T20:09:38.545Z,100487.47
2022-11-26T20:14:43.008Z,100487.22
2022-11-26T20:19:46.772Z,100490.28
2022-11-26T20:24:49.657Z,100488.31
2022-11-26T20:29:53.904Z,100491.94
2022-11-26T20:34:57.981Z,100487.00
2022-11-26T20:40:00.874Z,100484.22
2022-11-26T20:45:05.796Z,100477.34
2022-11-26T20:50:10.747Z,100479.31
2022-11-26T20:55:13.782Z,100479.13
2022-11-26T21:00:22.448Z,100478.41
2022-11-26T21:05:29.102Z,100483.03
2022-11-26T21:10:32.003Z,100485.94
2022-11-26T21:15:36.605Z,100477.91
2022-11-26T21:20:40.704Z,100475.44
2022-11-26T21:25:44.712Z,100489.72
2022-11-26T21:30:48.984Z,100492.72
2022-11-26T21:35:51.905Z,100499.28
2022-11-26T21:40:54.772Z,100505.69
2022-11-26T21:46:03.863Z,100500.66
2022-11-26T21:51:08.253Z,100489.94
2022-11-26T21:56:14.667Z,100489.19
2022-11-26T22:01:20.865Z,100491.03
2022-11-26T22:06:24.681Z,100489.63
2022-11-26T22:11:29.796Z,100493.00
2022-11-26T22:16:34.985Z,100500.28
2022-11-26T22:21:40.191Z,100511.53
2022-11-26T22:26:44.237Z,100514.38
2022-11-26T22:31:50.311Z,100511.94
2022-11-26T22:36:53.304Z,100510.09
2022-11-26T22:41:56.653Z,100523.84
2022-11-26T22:47:00.975Z,100522.16
2022-11-26T22:52:03.922Z,100517.81
2022-11-26T22:57:06.840Z,100517.53
2022-11-26T23:02:11.238Z,100515.03
2022-11-26T23:07:14.269Z,100515.31
2022-11-26T23:12:17.167Z,100515.00
2022-11-26T23:17:21.451Z,100522.03
2022-11-26T23:22:24.377Z,100525.97
2022-11-26T23:27:27.306Z,100519.56
2022-11-26T23:32:32.587Z,100524.25
2022-11-26T23:37:36.081Z,100517.84
2022-11-26T23:42:38.959Z,100513.47
2022-11-26T23:47:43.238Z,100519.72
2022-11-26T23:52:46.106Z,100514.03
2022-11-26T23:57:49.019Z,100503.50
